KFYV/FYV METAR and TAF weather

Enter ICAO airport designator
Station Type Date Time Source
KFYV METAR 2020/01/20 12:53 UTC NOAA

KFYV 201253Z 00000KT 10SM CLR M07/M09 A3057 RMK AO2 SLP367 T10671094


Station Type Date Time Source
KFYV Decoded METAR 2020/01/20 12:53 UTC NOAA

FAYETTEVILLE DRAKE FIELD, AR, United States (KFYV) 36-00N 94-10W 379M
Jan 20, 2020 - 07:53 AM EST / 2020.01.20 1253 UTC
Wind: Calm:0
Visibility: 10 mile(s):0
Sky conditions: clear
Temperature: 19.9 F (-6.7 C)
Dew Point: 15.1 F (-9.4 C)
Relative Humidity: 81%
Pressure (altimeter): 30.57 in. Hg (1035 hPa)
ob: KFYV 201253Z 00000KT 10SM CLR M07/M09 A3057 RMK AO2 SLP367 T10671094
cycle: 13

Station Type Date Time Source
KFYV TAF 2020/01/20 12:27 UTC NOAA

TAF KFYV 201124Z 2012/2112 VRB04KT P6SM SKC
FM210000 03006KT P6SM SKC

Example: see airport list